x

Pi-745 Tabs K (42045) Weather Station

7:00am - Tue 30th May 2017 All times are CDT. -5 hours from GMT.

  • Wind
    9mph, 11mph gusts
  • Sea Temp 81°f
  • Air Temp 77°f
  • Sea Pressure 1015.8mb
  • Pi-745 Tabs K
  • Pi-745 Tabs K

More Historic Weather Station data

Upgrade to MSW Pro to gain access to the past 30 days of data for over 8000 Wavebouys and Weather Stations around the globe.

Join Pro

Comparision Forecast

View Surf forecast
   
Tue 05/30 7:00am 9 11 mph 1015.8mb 81f 77f
6:00am 9 11 mph 1015.4mb 81f 76f
5:00am 11 16 mph 1015mb 81f 76f
4:00am 11 16 mph 1014.3mb 81f 76f
3:00am 11 16 mph 1014.5mb 81f 76f
2:00am 11 16 mph 1015mb 81f 77f
1:00am 11 13 mph 1015.1mb 81f 77f
12:00am 9 11 mph 1015.1mb 81f 77f
Mon 05/29 11:00pm 7 9 mph 1015.4mb 81f 77f
6:00pm 4 7 mph 1013.7mb 81f 78f
5:00pm 7 11 mph 1014.2mb 81f 77f
3:00pm 13 16 mph 1013.4mb 81f 77f
2:00pm 16 18 mph 1013.3mb 81f 76f
1:00pm 22 29 mph 1013.4mb 81f 77f
12:00pm 20 25 mph 1013.2mb 81f 77f
11:00am 18 22 mph 1013.2mb 81f 77f
10:00am 20 27 mph 1014.9mb 81f 77f
9:00am 29 36 mph 1015.4mb 81f 74f
8:00am 22 31 mph 1015.9mb 81f 74f
7:00am 27 34 mph 1014.7mb 81f 74f
6:00am 27 34 mph 1013.3mb 81f 73f
4:00am 16 18 mph 1011.4mb 81f 80f
3:00am 13 16 mph 1011.3mb 81f 80f
2:00am 16 22 mph 1011.6mb 81f 80f
1:00am 16 22 mph 1012.5mb 81f 80f
12:00am 13 16 mph 1012.7mb 81f 80f
Sun 05/28 6:00pm 16 18 mph 1010.1mb 82f 80f
5:00pm 16 20 mph 1010.9mb 82f 80f
4:00pm 16 18 mph 1011.3mb 82f 80f
2:00pm 13 18 mph 1012.1mb 82f 80f
1:00pm 11 13 mph 1012.3mb 82f 80f
12:00pm 13 18 mph 1012mb 82f 80f
11:00am 16 20 mph 1011.4mb 82f 80f
10:00am 13 18 mph 1011.4mb 82f 80f
9:00am 16 20 mph 1010.9mb 82f 80f
8:00am 18 22 mph 1010.1mb 82f 80f
7:00am 16 20 mph 1009.9mb 82f 79f
6:00am 18 22 mph 1009.6mb 81f 79f
5:00am 18 22 mph 1009.8mb 81f 80f
4:00am 16 20 mph 1009.7mb 81f 80f
2:00am 18 20 mph 1011.1mb 81f 80f
1:00am 18 22 mph 1011.5mb 81f 80f
12:00am 20 25 mph 1011.8mb 81f 80f
Sat 05/27 11:00pm 18 25 mph 1011.8mb 81f 80f
6:00pm 18 22 mph 1010.1mb 81f 80f
5:00pm 18 20 mph 1010.6mb 81f 80f
4:00pm 13 18 mph 1011mb 81f 80f
3:00pm 13 18 mph 1011.8mb 81f 80f
2:00pm 13 18 mph 1012.4mb 81f 80f
1:00pm 13 18 mph 1012.9mb 81f 80f
12:00pm 13 18 mph 1013.4mb 80f 80f
11:00am 16 20 mph 1013.3mb 80f 80f
10:00am 16 22 mph 1013.2mb 80f 80f
9:00am 18 22 mph 1012.7mb 80f 80f
8:00am 18 25 mph 1012.5mb 80f 79f
7:00am 18 22 mph 1012.3mb 80f 79f
6:00am 18 25 mph 1011.3mb 80f 79f
5:00am 18 25 mph 1011.4mb 80f 79f
4:00am 20 25 mph 1011.1mb 80f 79f
3:00am 20 27 mph 1011.2mb 80f 79f
2:00am 22 29 mph 1011.6mb 80f 79f
1:00am 20 25 mph 1011.6mb 80f 79f
12:00am 20 25 mph 1012.3mb 80f 79f
Fri 05/26 11:00pm 18 22 mph 1012.3mb 80f 79f
6:00pm 16 20 mph 1009.9mb 81f 80f
5:00pm 16 20 mph 1009.9mb 81f 80f
4:00pm 16 18 mph 1010.2mb 81f 80f
3:00pm 16 20 mph 1010.5mb 81f 80f
2:00pm 16 20 mph 1010.8mb 81f 80f